Time;durP1;ratioP1;P1;durP2;ratioP2;P2;SDS_P1;SDS_P2;PMS_P1;PMS_P2;Temp;Humidity;BMP_temperature;BMP_pressure;BME280_temperature;BME280_humidity;BME280_pressure;Samples;Min_cycle;Max_cycle;Signal;HPM_P1;HPM_P2
2022/11/20 00:00:10;;;;;;;17.58;8.68;;;;;;;-2.45;90.70;101232.47;4987616;28;20034;-69
2022/11/20 00:02:36;;;;;;;23.35;9.68;;;;;;;-2.46;90.70;101238.72;5004949;28;20042;-67
2022/11/20 00:05:02;;;;;;;17.58;9.20;;;;;;;-2.52;90.48;101233.44;4989057;28;20066;-66
2022/11/20 00:07:27;;;;;;;21.00;9.07;;;;;;;-2.56;90.67;101240.63;4988334;28;20045;-66
2022/11/20 00:09:52;;;;;;;22.42;10.15;;;;;;;-2.55;90.84;101238.81;5001207;28;20033;-66
2022/11/20 00:12:18;;;;;;;21.30;9.55;;;;;;;-2.56;90.85;101235.28;5008403;28;20057;-66
2022/11/20 00:14:43;;;;;;;19.25;9.90;;;;;;;-2.58;90.67;101234.41;5005113;28;20524;-66
2022/11/20 00:17:08;;;;;;;17.80;9.10;;;;;;;-2.60;90.75;101237.09;4991561;28;20116;-69
2022/11/20 00:19:34;;;;;;;20.38;9.75;;;;;;;-2.62;91.12;101232.69;4988903;28;20042;-65
2022/11/20 00:21:59;;;;;;;20.77;8.98;;;;;;;-2.66;91.19;101231.84;5003453;28;20046;-66
2022/11/20 00:24:24;;;;;;;19.67;8.93;;;;;;;-2.70;91.09;101232.78;4987895;28;20521;-69
2022/11/20 00:26:50;;;;;;;18.52;9.02;;;;;;;-2.69;91.41;101239.00;4988150;28;20556;-66
2022/11/20 00:29:15;;;;;;;19.02;8.73;;;;;;;-2.70;91.44;101243.44;4987950;28;20038;-66
2022/11/20 00:31:40;;;;;;;19.05;8.95;;;;;;;-2.72;91.61;101231.91;4988807;28;20060;-68
2022/11/20 00:34:06;;;;;;;18.02;9.30;;;;;;;-2.84;91.57;101222.31;4988044;28;20034;-66
2022/11/20 00:36:33;;;;;;;17.25;9.05;;;;;;;-2.80;91.62;101235.56;4986934;28;20401;-65
2022/11/20 00:38:59;;;;;;;18.80;9.60;;;;;;;-2.85;91.69;101222.28;4987418;28;20048;-66
2022/11/20 00:41:26;;;;;;;19.52;8.93;;;;;;;-2.92;91.56;101225.94;4987250;28;20117;-66
2022/11/20 00:43:53;;;;;;;17.63;8.60;;;;;;;-2.98;92.05;101232.22;4988654;28;20046;-65
2022/11/20 00:46:21;;;;;;;20.00;8.40;;;;;;;-3.01;92.00;101223.38;4989378;28;20125;-66
2022/11/20 00:48:47;;;;;;;17.35;8.77;;;;;;;-3.02;91.94;101227.81;4988060;28;20030;-66
2022/11/20 00:51:18;;;;;;;18.92;9.13;;;;;;;-3.01;92.28;101226.91;4986457;28;20158;-67
2022/11/20 00:53:45;;;;;;;20.42;9.25;;;;;;;-3.04;91.90;101239.38;4991149;28;20037;-67
2022/11/20 00:56:13;;;;;;;18.88;9.73;;;;;;;-3.05;92.24;101234.94;5006404;28;20430;-67
2022/11/20 00:58:40;;;;;;;20.55;9.70;;;;;;;-3.05;91.88;101229.63;5005618;28;20492;-66
2022/11/20 01:01:06;;;;;;;19.85;8.95;;;;;;;-3.08;92.00;101235.84;4997919;28;20493;-67
2022/11/20 01:03:32;;;;;;;21.05;10.02;;;;;;;-3.11;92.22;101230.59;5005210;28;20108;-66
2022/11/20 01:06:10;;;;;;;19.63;8.65;;;;;;;-3.11;91.98;101227.91;5008046;28;20037;-66
2022/11/20 01:08:36;;;;;;;18.77;8.75;;;;;;;-3.13;92.17;101224.38;4997074;28;20049;-67
2022/11/20 01:11:05;;;;;;;19.42;8.50;;;;;;;-3.15;92.19;101226.19;5006367;28;20029;-67
2022/11/20 01:13:37;;;;;;;20.35;9.77;;;;;;;-3.18;92.30;101229.75;5007471;28;20521;-66
2022/11/20 01:16:08;;;;;;;27.13;10.15;;;;;;;-3.20;92.62;101231.53;4998079;28;20514;-67
2022/11/20 01:18:34;;;;;;;17.90;9.20;;;;;;;-3.22;92.59;101229.78;4993346;28;20088;-66
2022/11/20 01:21:02;;;;;;;17.15;8.27;;;;;;;-3.24;92.60;101235.13;4988393;28;20429;-66
2022/11/20 01:23:31;;;;;;;19.33;8.98;;;;;;;-3.27;92.67;101226.28;4987568;28;20038;-67
2022/11/20 01:25:56;;;;;;;22.60;9.50;;;;;;;-3.28;92.85;101228.06;4986696;28;20046;-66
2022/11/20 01:28:21;;;;;;;15.80;8.82;;;;;;;-3.30;92.81;101231.66;4986678;28;20105;-66
2022/11/20 01:30:47;;;;;;;17.98;9.23;;;;;;;-3.30;92.85;101231.66;4995008;28;20038;-66
2022/11/20 01:33:12;;;;;;;19.63;9.18;;;;;;;-3.33;92.93;101225.47;4986571;28;20061;-67
2022/11/20 01:35:37;;;;;;;20.35;9.05;;;;;;;-3.36;92.76;101228.16;4987368;28;20039;-68
2022/11/20 01:38:03;;;;;;;22.90;8.90;;;;;;;-3.32;93.23;101221.00;4990314;28;20054;-69
2022/11/20 01:40:28;;;;;;;19.85;9.15;;;;;;;-3.38;93.25;101213.97;4991494;28;20038;-67
2022/11/20 01:43:22;;;;;;;19.02;8.25;;;;;;;-3.40;93.10;101213.13;5009748;28;20128;-66
2022/11/20 01:46:01;;;;;;;18.55;9.65;;;;;;;-3.39;93.09;101224.66;5000530;28;20046;-67
2022/11/20 01:48:38;;;;;;;20.00;7.68;;;;;;;-3.45;92.98;101224.69;4997416;28;20537;-67
2022/11/20 01:51:06;;;;;;;17.98;8.68;;;;;;;-3.46;93.36;101222.91;4990363;28;20042;-67
2022/11/20 01:53:36;;;;;;;19.23;8.75;;;;;;;-3.48;93.39;101222.94;4989626;28;20022;-65
2022/11/20 01:56:05;;;;;;;20.08;8.35;;;;;;;-3.48;93.61;101224.72;4991264;28;20034;-67
2022/11/20 01:58:35;;;;;;;18.13;9.13;;;;;;;-3.50;93.66;101226.50;4991267;28;20038;-66
2022/11/20 02:01:00;;;;;;;19.52;9.25;;;;;;;-3.54;93.39;101224.75;4990845;28;20081;-66
2022/11/20 02:03:27;;;;;;;18.00;9.43;;;;;;;-3.55;93.39;101221.22;4991029;28;20030;-68
2022/11/20 02:06:07;;;;;;;20.75;8.90;;;;;;;-3.57;93.78;101214.16;5002185;28;20040;-66
2022/11/20 02:08:32;;;;;;;17.90;8.85;;;;;;;-3.58;93.44;101223.06;4989440;28;20053;-66
2022/11/20 02:10:58;;;;;;;22.08;9.55;;;;;;;-3.61;93.52;101213.31;4989625;28;20092;-67
2022/11/20 02:16:21;;;;;;;20.33;9.70;;;;;;;-3.64;93.52;101226.63;4995873;28;20053;-69
2022/11/20 02:18:47;;;;;;;19.10;8.95;;;;;;;-3.69;93.46;101216.00;5005102;28;20517;-66
2022/11/20 02:21:26;;;;;;;19.42;8.65;;;;;;;-3.69;93.45;101212.47;4990241;28;20041;-67
2022/11/20 02:24:04;;;;;;;17.02;8.63;;;;;;;-3.72;93.32;101208.09;5005946;28;20039;-67
2022/11/20 02:26:32;;;;;;;18.17;9.32;;;;;;;-3.75;93.58;101208.09;5005654;28;20525;-67
2022/11/20 02:29:00;;;;;;;19.20;8.85;;;;;;;-3.74;93.55;101219.63;4989147;28;20521;-67
2022/11/20 02:31:26;;;;;;;19.02;9.75;;;;;;;-3.73;93.67;101209.00;4996642;28;20175;-67
2022/11/20 02:33:56;;;;;;;19.27;9.32;;;;;;;-3.69;93.85;101210.69;4991194;28;20034;-66
2022/11/20 02:36:24;;;;;;;19.67;9.23;;;;;;;-3.68;94.01;101215.16;4989545;28;20152;-66
2022/11/20 02:38:49;;;;;;;18.10;8.80;;;;;;;-3.64;93.97;101195.63;4990017;28;20030;-67
2022/11/20 02:41:15;;;;;;;20.42;9.32;;;;;;;-3.62;94.06;101198.25;4990380;28;20045;-67
2022/11/20 02:43:40;;;;;;;18.85;8.68;;;;;;;-3.62;93.86;101200.91;4990091;28;20034;-67
2022/11/20 02:46:07;;;;;;;23.00;9.63;;;;;;;-3.59;93.94;101192.91;4999549;28;20133;-66
2022/11/20 02:48:32;;;;;;;17.95;8.38;;;;;;;-3.60;93.92;101202.66;5004731;28;20042;-67
2022/11/20 02:50:58;;;;;;;17.25;8.75;;;;;;;-3.56;94.11;101206.16;4991330;28;20047;-67
2022/11/20 02:53:23;;;;;;;20.67;8.73;;;;;;;-3.55;93.74;101201.72;5023045;28;20958;-66
2022/11/20 02:55:48;;;;;;;17.88;9.10;;;;;;;-3.54;93.70;101207.06;4990250;28;20038;-67
2022/11/20 02:58:14;;;;;;;20.08;9.70;;;;;;;-3.53;94.01;101210.59;5020706;28;20095;-66
2022/11/20 03:00:39;;;;;;;23.67;11.18;;;;;;;-3.50;94.04;101202.56;5012316;28;20030;-66
2022/11/20 03:03:04;;;;;;;18.50;9.15;;;;;;;-3.50;93.94;101198.13;4989878;28;20033;-67
2022/11/20 03:05:30;;;;;;;18.42;8.88;;;;;;;-3.49;93.88;101197.25;4989215;28;20074;-66
2022/11/20 03:07:55;;;;;;;25.13;9.88;;;;;;;-3.49;93.96;101193.72;4988301;28;20266;-68
2022/11/20 03:10:20;;;;;;;21.05;10.10;;;;;;;-3.49;94.05;101199.03;4990197;28;20042;-66
2022/11/20 03:12:46;;;;;;;23.58;10.48;;;;;;;-3.50;93.68;101197.25;4989666;28;20518;-67
2022/11/20 03:15:11;;;;;;;20.13;9.57;;;;;;;-3.49;93.70;101196.38;4989647;28;20402;-68
2022/11/20 03:17:36;;;;;;;21.33;10.13;;;;;;;-3.49;93.94;101197.25;5011353;28;20041;-67
2022/11/20 03:20:02;;;;;;;25.33;11.13;;;;;;;-3.47;93.92;101191.91;5007604;28;20031;-67
2022/11/20 03:22:30;;;;;;;19.80;10.48;;;;;;;-3.45;93.89;101191.00;4988724;28;20038;-67
2022/11/20 03:24:56;;;;;;;29.45;10.55;;;;;;;-3.45;93.76;101195.44;4988172;28;20030;-66
2022/11/20 03:27:21;;;;;;;26.63;11.05;;;;;;;-3.46;93.88;101197.22;4990473;28;20502;-67
2022/11/20 03:29:46;;;;;;;18.45;8.93;;;;;;;-3.43;94.15;101183.00;4989092;28;20088;-67
2022/11/20 03:32:12;;;;;;;21.80;10.27;;;;;;;-3.42;94.04;101180.31;4989599;28;20994;-67
2022/11/20 03:34:37;;;;;;;22.88;10.80;;;;;;;-3.41;94.25;101187.41;4989551;28;20081;-67
2022/11/20 03:37:02;;;;;;;21.95;10.48;;;;;;;-3.40;94.34;101169.69;4990929;28;20042;-66
2022/11/20 03:39:28;;;;;;;22.88;10.80;;;;;;;-3.39;94.31;101175.00;4991661;28;20049;-66
2022/11/20 03:41:54;;;;;;;23.33;11.65;;;;;;;-3.38;94.50;101170.53;5007683;28;20026;-66
2022/11/20 03:44:21;;;;;;;21.70;11.40;;;;;;;-3.38;94.77;101163.44;5005967;28;20033;-66
2022/11/20 03:46:46;;;;;;;24.17;11.63;;;;;;;-3.41;94.86;101167.91;5002334;28;20034;-67
2022/11/20 03:49:11;;;;;;;25.20;12.15;;;;;;;-3.38;95.12;101160.78;5003974;28;20444;-67
2022/11/20 03:51:37;;;;;;;24.65;10.75;;;;;;;-3.38;94.99;101159.91;5006986;28;20489;-66
2022/11/20 03:54:05;;;;;;;24.38;11.27;;;;;;;-3.35;94.90;101151.91;5004119;28;20498;-66
2022/11/20 03:56:33;;;;;;;21.02;10.07;;;;;;;-3.34;94.50;101158.97;5005448;28;20128;-68
2022/11/20 03:58:59;;;;;;;25.92;11.63;;;;;;;-3.35;94.81;101149.25;5003407;28;20048;-67
2022/11/20 04:01:31;;;;;;;24.13;11.20;;;;;;;-3.38;94.81;101144.84;5001247;28;20030;-68
2022/11/20 04:03:57;;;;;;;24.70;10.98;;;;;;;-3.38;94.63;101139.50;5004932;28;20042;-66
2022/11/20 04:06:29;;;;;;;22.73;10.80;;;;;;;-3.35;94.76;101146.59;5005036;28;20080;-67
2022/11/20 04:08:56;;;;;;;27.00;11.05;;;;;;;-3.37;94.75;101143.91;5003834;28;20048;-70
2022/11/20 04:11:24;;;;;;;23.20;11.35;;;;;;;-3.36;94.90;101147.47;5005111;28;20115;-67
2022/11/20 04:13:52;;;;;;;29.75;12.80;;;;;;;-3.40;94.87;101140.44;5007142;28;20528;-67
2022/11/20 04:16:18;;;;;;;24.38;10.50;;;;;;;-3.38;94.64;101143.94;5001836;28;20033;-67
2022/11/20 04:18:44;;;;;;;25.08;10.85;;;;;;;-3.38;94.59;101142.16;5004848;28;20487;-66
2022/11/20 04:21:10;;;;;;;25.10;9.93;;;;;;;-3.38;94.61;101143.94;5002023;28;20500;-67
2022/11/20 04:23:35;;;;;;;22.05;11.18;;;;;;;-3.43;94.64;101157.28;4987811;28;20795;-68
2022/11/20 04:26:11;;;;;;;23.67;11.23;;;;;;;-3.44;94.72;101152.88;4988631;28;20437;-67
2022/11/20 04:28:37;;;;;;;24.73;10.27;;;;;;;-3.44;94.22;101152.88;5004416;28;20046;-67
2022/11/20 04:31:09;;;;;;;26.02;11.52;;;;;;;-3.47;94.40;101136.94;5001518;28;20508;-67
2022/11/20 04:33:35;;;;;;;23.05;11.55;;;;;;;-3.51;94.32;101137.00;5001368;28;20034;-67
2022/11/20 04:36:18;;;;;;;27.58;11.68;;;;;;;-3.56;94.34;101134.38;5000582;28;20485;-67
2022/11/20 04:38:44;;;;;;;21.90;10.02;;;;;;;-3.56;94.35;101144.13;5003573;28;20077;-67
2022/11/20 04:41:18;;;;;;;22.77;10.20;;;;;;;-3.60;94.45;101144.16;4988233;28;20423;-67
2022/11/20 04:43:51;;;;;;;25.55;11.13;;;;;;;-3.62;94.32;101143.31;4987642;28;20590;-66
2022/11/20 04:46:18;;;;;;;19.58;10.00;;;;;;;-3.62;94.11;101143.31;5000946;28;20125;-66
2022/11/20 04:48:43;;;;;;;23.13;10.68;;;;;;;-3.69;94.03;101136.25;5001884;28;20038;-67
2022/11/20 04:51:09;;;;;;;25.85;10.98;;;;;;;-3.75;94.11;101131.03;4988342;28;20042;-67
2022/11/20 04:53:34;;;;;;;28.30;11.25;;;;;;;-3.80;94.25;101129.31;5000377;28;20030;-66
2022/11/20 04:56:01;;;;;;;22.33;10.27;;;;;;;-3.85;94.24;101134.66;4987837;28;20041;-67
2022/11/20 04:58:27;;;;;;;28.13;10.10;;;;;;;-3.89;94.40;101128.47;4987818;28;20089;-69
2022/11/20 05:00:52;;;;;;;18.67;9.80;;;;;;;-3.91;94.53;101126.75;4988398;28;20489;-67
2022/11/20 05:03:18;;;;;;;22.30;10.40;;;;;;;-3.91;94.29;101121.44;4993700;28;20112;-66
2022/11/20 05:05:43;;;;;;;25.38;10.50;;;;;;;-3.90;94.69;101123.19;4988219;28;20038;-67
2022/11/20 05:08:08;;;;;;;21.80;9.85;;;;;;;-3.90;94.53;101128.50;4987364;28;20037;-67
2022/11/20 05:10:34;;;;;;;20.15;10.90;;;;;;;-3.91;94.13;101132.06;4987940;28;20120;-67
2022/11/20 05:12:59;;;;;;;20.65;10.55;;;;;;;-3.94;94.24;101124.09;4986164;28;20520;-67
2022/11/20 05:15:24;;;;;;;20.85;10.52;;;;;;;-3.94;94.43;101118.78;4987381;28;20482;-68
2022/11/20 05:17:51;;;;;;;26.52;11.77;;;;;;;-3.95;94.51;101112.59;4986749;28;20108;-68
2022/11/20 05:20:17;;;;;;;18.33;9.40;;;;;;;-3.95;94.37;101115.25;4987954;28;20105;-66
2022/11/20 05:22:43;;;;;;;26.25;11.48;;;;;;;-3.98;94.37;101109.97;5003528;28;20142;-68
2022/11/20 05:25:09;;;;;;;20.33;10.52;;;;;;;-3.95;94.37;101106.41;4993022;28;20109;-66
2022/11/20 05:27:34;;;;;;;24.70;10.40;;;;;;;-3.98;94.09;101107.31;4987800;28;20041;-67
2022/11/20 05:29:59;;;;;;;19.45;10.00;;;;;;;-3.96;94.53;101107.31;4985829;28;20044;-67
2022/11/20 05:32:25;;;;;;;18.65;9.77;;;;;;;-3.93;94.46;101101.94;4987587;28;20121;-67
2022/11/20 05:34:54;;;;;;;20.63;10.20;;;;;;;-3.94;94.71;101097.53;5003306;28;20478;-68
2022/11/20 05:37:19;;;;;;;23.58;11.25;;;;;;;-3.92;95.05;101101.97;4987428;28;20052;-66
2022/11/20 05:39:44;;;;;;;19.77;10.07;;;;;;;-3.91;95.10;101098.41;4987795;28;20037;-66
2022/11/20 05:44:53;;;;;;;20.88;10.43;;;;;;;-3.76;95.25;101102.69;4986635;28;20121;-66
2022/11/20 05:47:19;;;;;;;27.77;10.90;;;;;;;-3.73;95.38;101105.31;4987225;28;20660;-68
2022/11/20 05:49:44;;;;;;;20.17;10.32;;;;;;;-3.71;95.13;101102.63;5002764;28;20045;-66
2022/11/20 05:52:10;;;;;;;23.95;11.55;;;;;;;-3.70;95.34;101105.28;5006682;28;20026;-66
2022/11/20 05:54:35;;;;;;;22.27;10.45;;;;;;;-3.65;95.08;101114.06;4988703;28;20087;-66
2022/11/20 05:57:00;;;;;;;19.85;10.68;;;;;;;-3.61;95.43;101120.25;5007769;28;20113;-67
2022/11/20 05:59:26;;;;;;;23.38;10.27;;;;;;;-3.57;95.65;101124.66;5004535;28;20034;-68
2022/11/20 06:01:51;;;;;;;24.90;10.65;;;;;;;-3.49;95.92;101137.88;4994368;28;20088;-67
2022/11/20 06:04:16;;;;;;;24.02;11.13;;;;;;;-3.45;96.18;101128.94;4986040;28;20038;-68
2022/11/20 06:06:42;;;;;;;25.10;11.40;;;;;;;-3.41;95.96;101131.56;4987270;28;20101;-67
2022/11/20 06:09:07;;;;;;;23.77;11.52;;;;;;;-3.37;95.85;101127.97;4997053;28;20054;-68
2022/11/20 06:11:33;;;;;;;25.88;10.98;;;;;;;-3.34;96.06;101127.94;4985891;28;20055;-67
2022/11/20 06:13:58;;;;;;;26.90;11.85;;;;;;;-3.33;96.40;101129.69;4985392;28;20061;-67
2022/11/20 06:16:23;;;;;;;21.85;9.95;;;;;;;-3.31;96.23;101132.38;4986836;28;20042;-66
2022/11/20 06:18:49;;;;;;;22.05;10.77;;;;;;;-3.34;96.59;101127.94;4998095;28;20044;-67
2022/11/20 06:21:20;;;;;;;25.00;11.70;;;;;;;-3.31;96.55;101136.78;4991490;28;20043;-68
2022/11/20 06:23:46;;;;;;;24.88;11.60;;;;;;;-3.25;96.82;101132.28;5004786;28;20069;-67
2022/11/20 06:26:20;;;;;;;20.60;10.50;;;;;;;-3.19;96.63;101126.88;4990815;28;20050;-68
2022/11/20 06:28:46;;;;;;;23.40;11.50;;;;;;;-3.14;96.88;101129.50;4997242;28;20461;-67
2022/11/20 06:31:14;;;;;;;27.13;11.57;;;;;;;-3.12;97.05;101133.91;4993898;28;20085;-67
2022/11/20 06:33:40;;;;;;;23.48;10.63;;;;;;;-3.05;96.95;101141.81;4990810;28;20049;-68
2022/11/20 06:36:05;;;;;;;22.67;11.20;;;;;;;-3.00;96.85;101130.19;4990748;28;20050;-68
2022/11/20 06:38:31;;;;;;;25.80;11.55;;;;;;;-2.97;97.07;101122.19;4990087;28;20339;-67
2022/11/20 06:40:56;;;;;;;25.58;11.25;;;;;;;-2.95;97.09;101123.03;4989314;28;20573;-67
2022/11/20 06:43:22;;;;;;;22.98;11.30;;;;;;;-2.92;97.28;101120.34;4989435;28;20042;-67
2022/11/20 06:45:55;;;;;;;25.02;11.07;;;;;;;-2.90;97.24;101118.53;4990367;28;20102;-67
2022/11/20 06:48:23;;;;;;;25.17;11.88;;;;;;;-2.85;97.16;101111.38;4991001;28;20040;-67
2022/11/20 06:50:48;;;;;;;26.08;11.52;;;;;;;-2.83;97.30;101117.56;4989333;28;20022;-67
2022/11/20 06:53:13;;;;;;;21.90;10.77;;;;;;;-2.81;97.46;101104.22;4990609;28;20092;-67
2022/11/20 06:55:43;;;;;;;22.02;10.70;;;;;;;-2.79;97.52;101105.09;4991469;28;20085;-68
2022/11/20 06:58:09;;;;;;;22.77;10.77;;;;;;;-2.74;97.29;101105.91;4989541;28;20177;-68
2022/11/20 07:00:35;;;;;;;21.65;11.32;;;;;;;-2.72;97.41;101097.91;4995560;28;20041;-67
2022/11/20 07:03:11;;;;;;;21.35;11.93;;;;;;;-2.64;97.72;101104.88;4989904;28;20065;-67
2022/11/20 07:05:38;;;;;;;25.95;12.35;;;;;;;-2.59;97.81;101115.47;5001600;28;20049;-67
2022/11/20 07:08:04;;;;;;;27.67;13.00;;;;;;;-2.55;97.82;101119.84;4993635;28;20045;-67
2022/11/20 07:10:30;;;;;;;25.80;12.00;;;;;;;-2.51;97.91;101115.38;4993482;28;20057;-67
2022/11/20 07:12:55;;;;;;;25.73;11.90;;;;;;;-2.46;97.58;101111.72;4996139;28;20042;-68
2022/11/20 07:15:24;;;;;;;25.30;11.18;;;;;;;-2.44;97.55;101106.38;5000750;28;20054;-70
2022/11/20 07:17:49;;;;;;;31.50;13.55;;;;;;;-2.39;97.48;101104.50;4991515;28;20038;-68
2022/11/20 07:20:15;;;;;;;24.95;12.10;;;;;;;-2.37;97.61;101105.41;4993915;28;20862;-68
2022/11/20 07:22:41;;;;;;;26.42;12.40;;;;;;;-2.34;97.50;101103.53;5010575;28;20028;-68
2022/11/20 07:25:08;;;;;;;26.67;12.82;;;;;;;-2.33;97.52;101099.13;5004177;28;20243;-68
2022/11/20 07:27:34;;;;;;;24.92;12.48;;;;;;;-2.26;97.71;101099.88;4988726;28;20461;-68
2022/11/20 07:29:59;;;;;;;27.25;12.73;;;;;;;-2.21;97.60;101095.38;4988954;28;20066;-68
2022/11/20 07:32:24;;;;;;;26.42;12.70;;;;;;;-2.16;97.71;101094.38;4995632;28;20056;-69
2022/11/20 07:34:50;;;;;;;28.13;13.27;;;;;;;-2.12;97.57;101095.22;4990150;28;20117;-69
2022/11/20 07:37:15;;;;;;;26.67;13.00;;;;;;;-2.04;97.59;101095.09;5004096;28;20065;-69
2022/11/20 07:39:41;;;;;;;27.52;11.70;;;;;;;-2.01;97.53;101089.69;5001424;28;20076;-68
2022/11/20 07:42:07;;;;;;;28.55;13.18;;;;;;;-2.01;97.98;101085.25;5006205;28;20041;-68
2022/11/20 07:44:36;;;;;;;24.27;12.38;;;;;;;-1.94;97.87;101091.38;5003616;28;20486;-68
2022/11/20 07:47:01;;;;;;;31.52;14.02;;;;;;;-1.92;98.05;101081.53;4988048;28;20053;-70
2022/11/20 07:49:27;;;;;;;27.77;12.93;;;;;;;-1.88;98.03;101092.13;5003459;28;20038;-69
2022/11/20 07:51:55;;;;;;;26.88;11.75;;;;;;;-1.85;97.83;101089.41;4988053;28;20042;-68
2022/11/20 07:54:20;;;;;;;24.40;11.82;;;;;;;-1.79;98.01;101091.09;4990193;28;20030;-68
2022/11/20 07:56:47;;;;;;;27.83;13.02;;;;;;;-1.76;97.82;101084.84;4987583;28;20544;-69
2022/11/20 07:59:12;;;;;;;24.48;11.70;;;;;;;-1.69;97.95;101089.13;4988560;28;20030;-69
2022/11/20 08:01:39;;;;;;;26.17;12.80;;;;;;;-1.65;97.87;101086.38;4990008;28;20482;-69
2022/11/20 08:04:05;;;;;;;32.53;13.32;;;;;;;-1.60;98.09;101091.63;4991502;28;20045;-69
2022/11/20 08:06:30;;;;;;;29.10;13.50;;;;;;;-1.54;98.14;101099.50;4990018;28;20144;-69
2022/11/20 08:08:55;;;;;;;32.63;13.98;;;;;;;-1.47;97.91;101105.63;4996671;28;20057;-69
2022/11/20 08:14:14;;;;;;;24.30;11.93;;;;;;;-1.36;97.86;101100.97;4991490;28;20025;-70
2022/11/20 08:16:40;;;;;;;29.95;14.25;;;;;;;-1.31;98.41;101101.75;4988443;28;20034;-70
2022/11/20 08:19:06;;;;;;;22.67;12.40;;;;;;;-1.27;98.38;101087.44;4989720;28;20552;-70
2022/11/20 08:21:31;;;;;;;29.42;14.85;;;;;;;-1.19;97.98;101095.28;4994367;28;20033;-70
2022/11/20 08:23:57;;;;;;;28.73;13.05;;;;;;;-1.15;97.86;101091.66;5004015;28;20125;-71
2022/11/20 08:26:23;;;;;;;24.27;13.88;;;;;;;-1.11;98.16;101074.69;4988856;28;20030;-71
2022/11/20 08:28:48;;;;;;;27.23;14.38;;;;;;;-1.06;98.11;101080.78;5003322;28;20038;-71
2022/11/20 08:31:14;;;;;;;27.55;12.95;;;;;;;-1.00;98.28;101079.78;4988152;28;20034;-71
2022/11/20 08:33:39;;;;;;;28.15;13.82;;;;;;;-0.95;98.09;101084.09;4995472;28;20045;-71
2022/11/20 08:36:05;;;;;;;29.13;13.10;;;;;;;-0.87;97.75;101086.63;4987206;28;20022;-71
2022/11/20 08:38:31;;;;;;;25.33;13.70;;;;;;;-0.81;97.45;101092.69;4987698;28;20041;-71
2022/11/20 08:43:45;;;;;;;26.02;12.80;;;;;;;-0.67;97.69;101087.03;4986277;28;20044;-72
2022/11/20 08:46:11;;;;;;;30.02;13.88;;;;;;;-0.63;97.54;101085.19;4983749;28;20021;-73
2022/11/20 08:48:36;;;;;;;32.58;14.55;;;;;;;-0.58;97.27;101086.84;4994564;28;20042;-73
2022/11/20 08:51:02;;;;;;;26.95;13.75;;;;;;;-0.52;97.23;101081.34;5006360;28;20048;-73
2022/11/20 08:53:28;;;;;;;27.52;14.07;;;;;;;-0.42;97.64;101082.03;5005192;28;20030;-73
2022/11/20 08:55:53;;;;;;;28.35;13.35;;;;;;;-0.33;97.59;101087.16;4997418;28;20120;-74
2022/11/20 08:58:19;;;;;;;28.10;13.88;;;;;;;-0.26;97.22;101077.19;5000581;28;20121;-75
2022/11/20 09:00:45;;;;;;;28.48;14.77;;;;;;;-0.18;97.02;101080.56;5002958;28;20045;-74
2022/11/20 09:03:10;;;;;;;27.58;14.23;;;;;;;-0.13;96.85;101067.09;4989757;28;20564;-74
2022/11/20 09:05:35;;;;;;;28.17;15.27;;;;;;;-0.04;96.97;101066.84;5006506;28;20033;-75
2022/11/20 09:08:01;;;;;;;28.10;14.82;;;;;;;0.03;96.69;101071.13;4994813;28;20042;-74
2022/11/20 09:10:27;;;;;;;33.72;15.15;;;;;;;0.11;96.86;101078.97;4996715;28;20073;-74
2022/11/20 09:12:53;;;;;;;31.23;15.80;;;;;;;0.19;97.14;101076.97;4986105;28;20058;-75
2022/11/20 09:15:19;;;;;;;28.25;14.93;;;;;;;0.25;96.91;101072.31;4993933;28;20098;-74
2022/11/20 09:17:55;;;;;;;27.27;14.35;;;;;;;0.33;96.81;101066.78;4987535;28;20038;-74
2022/11/20 09:20:20;;;;;;;29.70;14.95;;;;;;;0.40;96.95;101071.03;4988645;28;20045;-74
2022/11/20 09:22:46;;;;;;;33.05;14.45;;;;;;;0.46;96.47;101059.28;4996472;28;20030;-74
2022/11/20 09:25:12;;;;;;;27.35;15.35;;;;;;;0.48;97.06;101047.63;4990704;28;20521;-74
2022/11/20 09:27:37;;;;;;;26.42;14.60;;;;;;;0.54;96.29;101051.91;4985613;28;20080;-73
2022/11/20 09:30:03;;;;;;;28.17;14.30;;;;;;;0.61;97.04;101049.97;4997860;28;20052;-73
2022/11/20 09:32:29;;;;;;;26.88;15.50;;;;;;;0.69;96.88;101050.59;4990870;28;20056;-73
2022/11/20 09:34:54;;;;;;;27.98;14.65;;;;;;;0.74;96.67;101043.31;4986717;28;20494;-73
2022/11/20 09:37:19;;;;;;;27.88;14.05;;;;;;;0.80;96.49;101040.47;5018496;28;20041;-73
2022/11/20 09:39:45;;;;;;;30.10;15.20;;;;;;;0.93;97.32;101039.19;4993879;28;20050;-73
2022/11/20 09:42:40;;;;;;;25.63;13.85;;;;;;;1.05;96.45;101031.72;4987382;28;20496;-73
2022/11/20 09:45:16;;;;;;;32.05;14.70;;;;;;;1.11;96.40;101020.81;4987210;28;20041;-74
2022/11/20 09:48:06;;;;;;;28.00;14.68;;;;;;;1.22;97.04;101029.41;5000556;28;20057;-73
2022/11/20 09:50:41;;;;;;;37.17;16.40;;;;;;;1.32;96.85;101021.94;4986045;28;20034;-73
2022/11/20 09:53:15;;;;;;;29.55;15.48;;;;;;;1.42;97.25;101021.59;4987271;28;20046;-72
2022/11/20 09:55:41;;;;;;;30.85;15.20;;;;;;;1.48;97.34;101013.34;4987321;28;20092;-73
2022/11/20 09:58:15;;;;;;;39.55;15.40;;;;;;;1.52;96.55;101019.50;4990069;28;20038;-72
2022/11/20 10:00:41;;;;;;;39.33;17.60;;;;;;;1.60;97.59;101011.22;4990939;28;20042;-73
2022/11/20 10:03:41;;;;;;;38.72;17.10;;;;;;;1.63;96.33;101005.72;4990956;28;20129;-72
2022/11/20 10:06:13;;;;;;;36.45;16.25;;;;;;;1.61;95.87;101008.47;4978695;28;20050;-73
2022/11/20 10:08:48;;;;;;;36.47;14.70;;;;;;;1.63;95.99;101001.28;4991211;28;20490;-72
2022/11/20 10:11:23;;;;;;;36.75;17.15;;;;;;;1.65;95.88;100999.41;4990766;28;20060;-72
2022/11/20 10:14:10;;;;;;;38.42;16.83;;;;;;;1.67;95.94;100980.56;4989354;28;20066;-72
2022/11/20 10:17:10;;;;;;;40.92;19.42;;;;;;;1.76;96.92;100982.94;4989276;28;20041;-71
2022/11/20 10:20:12;;;;;;;47.38;18.50;;;;;;;1.88;97.20;100977.19;5009743;28;20386;-72
2022/11/20 10:23:21;;;;;;;42.75;17.55;;;;;;;1.97;97.12;100970.63;5008804;28;20057;-71
2022/11/20 10:26:22;;;;;;;42.38;17.40;;;;;;;1.98;95.65;100961.63;4988823;28;20039;-71
2022/11/20 10:28:57;;;;;;;44.70;18.40;;;;;;;1.98;95.32;100954.47;4989600;28;20478;-71
2022/11/20 10:31:37;;;;;;;49.35;17.85;;;;;;;1.99;94.65;100948.16;4994986;28;20141;-71
2022/11/20 10:34:19;;;;;;;45.28;17.42;;;;;;;2.01;94.91;100923.97;4992615;28;20490;-71
2022/11/20 10:36:52;;;;;;;46.35;17.67;;;;;;;2.07;96.11;100917.50;4988799;28;20050;-71
2022/11/20 10:39:22;;;;;;;;;;;;;;;2.15;95.90;100918.97;4989655;28;20081;-71
2022/11/20 10:41:51;;;;;;;50.00;17.92;;;;;;;2.24;96.07;100909.72;4990277;28;20292;-71
2022/11/20 10:47:22;;;;;;;49.30;19.27;;;;;;;2.35;94.59;100901.25;4990078;28;20042;-71
2022/11/20 10:49:52;;;;;;;51.53;18.80;;;;;;;2.35;95.26;100907.50;4990119;28;20527;-70
2022/11/20 10:52:30;;;;;;;48.65;18.42;;;;;;;2.35;94.87;100906.63;4989987;28;20410;-70
2022/11/20 10:55:07;;;;;;;46.88;19.73;;;;;;;2.36;94.91;100897.63;4994048;28;20042;-70
2022/11/20 10:57:55;;;;;;;48.88;18.83;;;;;;;2.36;95.79;100886.91;4989986;28;20038;-70
2022/11/20 11:00:21;;;;;;;49.97;19.02;;;;;;;2.36;95.28;100884.22;5004676;28;20041;-70
2022/11/20 11:02:48;;;;;;;51.20;19.40;;;;;;;2.37;95.10;100873.41;4990749;28;20038;-70
2022/11/20 11:05:32;;;;;;;48.47;18.88;;;;;;;2.42;95.83;100870.53;4988742;28;20049;-70
2022/11/20 11:07:59;;;;;;;53.83;22.00;;;;;;;2.47;95.82;100877.50;4987439;28;20560;-70
2022/11/20 11:10:35;;;;;;;49.75;20.92;;;;;;;2.53;96.21;100869.22;4990036;28;20045;-72
2022/11/20 11:13:01;;;;;;;55.38;21.23;;;;;;;2.57;94.92;100861.91;4989314;28;20057;-71
2022/11/20 11:15:36;;;;;;;54.75;21.45;;;;;;;2.62;95.83;100870.66;4997434;28;20038;-71
2022/11/20 11:18:01;;;;;;;55.47;20.38;;;;;;;2.65;95.41;100872.34;5002875;28;20038;-71
2022/11/20 11:20:26;;;;;;;59.22;19.75;;;;;;;2.68;95.61;100864.16;4988509;28;20406;-71
2022/11/20 11:22:57;;;;;;;51.58;20.13;;;;;;;2.71;94.95;100869.44;4988223;28;20167;-71
2022/11/20 11:25:28;;;;;;;49.10;18.75;;;;;;;2.70;94.62;100867.66;4988843;28;20404;-72
2022/11/20 11:27:56;;;;;;;44.38;20.38;;;;;;;2.72;95.55;100861.31;4989866;28;20088;-71
2022/11/20 11:30:22;;;;;;;44.53;18.75;;;;;;;2.72;94.23;100868.50;4989924;28;20037;-72
2022/11/20 11:32:48;;;;;;;46.90;19.88;;;;;;;2.71;93.98;100870.31;4988834;28;20034;-72